Time;durP1;ratioP1;P1;durP2;ratioP2;P2;SDS_P1;SDS_P2;PMS_P1;PMS_P2;Temp;Humidity;BMP_temperature;BMP_pressure;BME280_temperature;BME280_humidity;BME280_pressure;Samples;Min_cycle;Max_cycle;Signal;HPM_P1;HPM_P2
2022/09/10 00:01:09;;;;;;;9.25;4.40;;;16.30;88.80;;;;;;5073395;28;20183;-74
2022/09/10 00:03:34;;;;;;;9.65;4.03;;;16.30;88.50;;;;;;5073219;28;20021;-74
2022/09/10 00:06:02;;;;;;;11.05;4.32;;;16.30;88.50;;;;;;5073249;28;20165;-74
2022/09/10 00:08:29;;;;;;;6.45;3.63;;;16.20;88.50;;;;;;5073287;28;20381;-74
2022/09/10 00:10:56;;;;;;;11.93;3.72;;;16.20;88.70;;;;;;5073298;28;20021;-74
2022/09/10 00:13:22;;;;;;;7.40;2.72;;;16.30;88.40;;;;;;5073258;28;20076;-74
2022/09/10 00:15:52;;;;;;;7.80;3.40;;;16.20;88.30;;;;;;5073212;28;20031;-74
2022/09/10 00:18:21;;;;;;;8.48;3.53;;;16.30;88.40;;;;;;5073253;28;20029;-74
2022/09/10 00:20:50;;;;;;;5.53;3.45;;;16.30;88.30;;;;;;5073164;28;20017;-74
2022/09/10 00:23:18;;;;;;;5.38;2.80;;;16.20;88.70;;;;;;5073172;28;20021;-75
2022/09/10 00:25:44;;;;;;;7.10;3.30;;;16.20;88.60;;;;;;5073198;28;20067;-74
2022/09/10 00:28:10;;;;;;;7.00;3.53;;;16.20;88.70;;;;;;5073031;28;20033;-75
2022/09/10 00:30:45;;;;;;;8.85;3.38;;;16.20;88.90;;;;;;5073105;28;20033;-74
2022/09/10 00:33:11;;;;;;;9.73;3.63;;;16.30;88.70;;;;;;5073140;28;20392;-75
2022/09/10 00:35:39;;;;;;;9.98;3.20;;;16.30;88.90;;;;;;5073032;28;20025;-75
2022/09/10 00:38:05;;;;;;;6.85;2.85;;;16.30;88.80;;;;;;5073015;28;20029;-74
2022/09/10 00:40:31;;;;;;;15.25;3.67;;;16.30;89.00;;;;;;5072150;28;20021;-74
2022/09/10 00:42:57;;;;;;;13.20;5.03;;;16.30;89.00;;;;;;5072970;28;20029;-74
2022/09/10 00:45:33;;;;;;;8.00;4.15;;;16.30;89.10;;;;;;5072872;28;20025;-74
2022/09/10 00:48:04;;;;;;;12.27;4.45;;;16.30;89.10;;;;;;5073113;28;20029;-74
2022/09/10 00:50:34;;;;;;;10.65;4.35;;;16.30;89.20;;;;;;5075237;28;20040;-74
2022/09/10 00:53:07;;;;;;;10.07;4.28;;;16.30;89.00;;;;;;5076982;28;20017;-74
2022/09/10 00:55:39;;;;;;;10.63;4.72;;;16.30;89.30;;;;;;5076881;28;20032;-74
2022/09/10 00:58:08;;;;;;;11.30;4.32;;;16.30;89.40;;;;;;5075836;28;20017;-74
2022/09/10 01:00:35;;;;;;;11.40;4.88;;;16.30;89.60;;;;;;5076750;28;20051;-74
2022/09/10 01:03:02;;;;;;;10.82;5.22;;;16.40;89.10;;;;;;5076691;28;20022;-74
2022/09/10 01:05:28;;;;;;;8.75;4.63;;;16.40;88.70;;;;;;5076238;28;20060;-74
2022/09/10 01:07:55;;;;;;;11.38;5.30;;;16.40;88.70;;;;;;5076621;28;20029;-73
2022/09/10 01:10:27;;;;;;;8.07;4.45;;;16.40;88.90;;;;;;5076568;28;20050;-73
2022/09/10 01:13:26;;;;;;;9.90;5.13;;;16.40;88.90;;;;;;5075592;28;20029;-75
2022/09/10 01:16:18;;;;;;;11.32;4.40;;;16.40;88.70;;;;;;5075500;28;20033;-74
2022/09/10 01:19:14;;;;;;;7.75;4.80;;;16.40;90.00;;;;;;5072734;28;20041;-73
2022/09/10 01:21:58;;;;;;;8.80;4.82;;;16.40;89.20;;;;;;5075608;28;20043;-74
2022/09/10 01:24:35;;;;;;;12.65;5.10;;;16.40;89.30;;;;;;5076351;28;20029;-73
2022/09/10 01:27:15;;;;;;;10.48;5.32;;;16.40;89.20;;;;;;5076341;28;20048;-73
2022/09/10 01:29:49;;;;;;;9.68;4.78;;;16.40;89.30;;;;;;5076191;28;20025;-73
2022/09/10 01:32:32;;;;;;;10.95;5.28;;;16.30;89.60;;;;;;5076318;28;20029;-73
2022/09/10 01:35:21;;;;;;;12.85;5.07;;;16.30;89.60;;;;;;5076197;28;20073;-73
2022/09/10 01:37:52;;;;;;;13.45;6.10;;;16.30;89.70;;;;;;5076115;28;20107;-73
2022/09/10 01:40:18;;;;;;;13.38;5.95;;;16.30;90.00;;;;;;5076054;28;20077;-73
2022/09/10 01:42:44;;;;;;;10.45;5.32;;;16.30;90.00;;;;;;5075972;28;20048;-73
2022/09/10 01:45:14;;;;;;;11.63;5.40;;;16.40;89.70;;;;;;5075895;28;20020;-73
2022/09/10 01:48:08;;;;;;;9.50;6.03;;;16.40;89.90;;;;;;5075803;28;20033;-73
2022/09/10 01:50:47;;;;;;;13.95;5.75;;;16.40;89.70;;;;;;5075843;28;20052;-74
2022/09/10 01:53:29;;;;;;;11.30;5.22;;;16.40;89.70;;;;;;5074743;28;20017;-73
2022/09/10 01:55:58;;;;;;;11.38;5.95;;;16.40;89.60;;;;;;5075892;28;20449;-74
2022/09/10 01:58:34;;;;;;;10.95;5.45;;;16.40;89.70;;;;;;5075647;28;20088;-74
2022/09/10 02:01:12;;;;;;;9.40;4.90;;;16.50;89.70;;;;;;5074779;28;20032;-74
2022/09/10 02:03:40;;;;;;;12.00;5.78;;;16.50;89.40;;;;;;5075590;28;20028;-74
2022/09/10 02:06:10;;;;;;;9.25;5.68;;;16.50;89.50;;;;;;5075260;28;20045;-74
2022/09/10 02:08:39;;;;;;;14.32;5.70;;;16.50;89.60;;;;;;5075552;28;20052;-74
2022/09/10 02:11:09;;;;;;;12.35;6.28;;;16.50;89.70;;;;;;5075578;28;20522;-74
2022/09/10 02:13:35;;;;;;;11.82;5.45;;;16.60;89.30;;;;;;5075392;28;20028;-74
2022/09/10 02:16:05;;;;;;;12.63;5.60;;;16.50;89.40;;;;;;5074415;28;20040;-74
2022/09/10 02:18:34;;;;;;;12.07;5.60;;;16.50;89.50;;;;;;5075317;28;20056;-74
2022/09/10 02:21:02;;;;;;;12.35;5.88;;;16.50;89.50;;;;;;5075263;28;20059;-74
2022/09/10 02:23:43;;;;;;;11.95;5.72;;;16.60;89.50;;;;;;5075226;28;20025;-74
2022/09/10 02:26:09;;;;;;;12.95;6.15;;;16.60;89.50;;;;;;5075137;28;20104;-74
2022/09/10 02:28:36;;;;;;;12.60;6.20;;;16.60;89.40;;;;;;5075012;28;20045;-74
2022/09/10 02:31:01;;;;;;;11.70;6.40;;;16.60;89.50;;;;;;5074081;28;20032;-74
2022/09/10 02:33:27;;;;;;;10.13;5.43;;;16.70;89.60;;;;;;5074993;28;20029;-74
2022/09/10 02:35:54;;;;;;;11.38;6.07;;;16.60;89.60;;;;;;5074950;28;20021;-74
2022/09/10 02:38:20;;;;;;;13.50;6.20;;;16.60;90.00;;;;;;5074900;28;20032;-74
2022/09/10 02:40:49;;;;;;;11.48;5.93;;;16.60;90.20;;;;;;5074854;28;20025;-74
2022/09/10 02:43:16;;;;;;;15.05;6.63;;;16.60;90.00;;;;;;5074825;28;20033;-74
2022/09/10 02:45:42;;;;;;;12.68;6.45;;;16.60;90.00;;;;;;5074713;28;20025;-74
2022/09/10 02:48:07;;;;;;;12.70;6.07;;;16.60;90.00;;;;;;5074741;28;20077;-74
2022/09/10 02:50:34;;;;;;;11.68;6.53;;;16.60;90.00;;;;;;5074674;28;20049;-74
2022/09/10 02:53:02;;;;;;;13.30;6.38;;;16.60;90.10;;;;;;5073629;28;20423;-74
2022/09/10 02:55:28;;;;;;;12.32;6.40;;;16.60;90.10;;;;;;5074592;28;20025;-74
2022/09/10 02:57:54;;;;;;;13.88;6.28;;;16.60;90.20;;;;;;5074535;28;20033;-74
2022/09/10 03:00:20;;;;;;;14.52;6.07;;;16.50;90.30;;;;;;5074471;28;20027;-74
2022/09/10 03:02:46;;;;;;;12.30;6.13;;;16.50;90.40;;;;;;5074422;28;20025;-74
2022/09/10 03:05:13;;;;;;;14.27;6.40;;;16.50;90.30;;;;;;5074248;28;20112;-74
2022/09/10 03:07:39;;;;;;;15.75;6.90;;;16.50;90.40;;;;;;5073474;28;20033;-75
2022/09/10 03:10:05;;;;;;;15.15;7.22;;;16.50;90.50;;;;;;5056648;28;20032;-74
2022/09/10 03:12:31;;;;;;;14.38;6.70;;;16.50;90.40;;;;;;5074065;28;20041;-73
2022/09/10 03:14:57;;;;;;;12.45;6.57;;;16.60;90.30;;;;;;5074198;28;20043;-73
2022/09/10 03:17:24;;;;;;;11.25;6.43;;;16.50;90.40;;;;;;5074151;28;20029;-73
2022/09/10 03:19:50;;;;;;;13.35;6.72;;;16.50;90.50;;;;;;5073151;28;20048;-73
2022/09/10 03:22:16;;;;;;;13.63;6.78;;;16.60;90.60;;;;;;5073998;28;20037;-73
2022/09/10 03:24:42;;;;;;;11.75;6.68;;;16.50;90.60;;;;;;5074174;28;20037;-74
2022/09/10 03:27:08;;;;;;;10.00;6.47;;;16.50;90.70;;;;;;5074076;28;20091;-73
2022/09/10 03:29:34;;;;;;;12.98;7.07;;;16.50;90.70;;;;;;5073864;28;20056;-74
2022/09/10 03:32:00;;;;;;;14.68;7.05;;;16.50;90.80;;;;;;5073884;28;20029;-73
2022/09/10 03:34:25;;;;;;;13.20;6.88;;;16.50;90.80;;;;;;5072848;28;20021;-74
2022/09/10 03:36:51;;;;;;;12.80;6.57;;;16.50;90.80;;;;;;5073799;28;20029;-73
2022/09/10 03:39:17;;;;;;;19.33;6.65;;;16.50;90.90;;;;;;5073767;28;20032;-75
2022/09/10 03:41:44;;;;;;;11.80;6.13;;;16.50;91.00;;;;;;5073758;28;20021;-75
2022/09/10 03:44:10;;;;;;;12.15;6.70;;;16.50;90.90;;;;;;5073703;28;20036;-74
2022/09/10 03:46:37;;;;;;;13.68;6.75;;;16.60;91.30;;;;;;5073613;28;20063;-74
2022/09/10 03:49:04;;;;;;;12.82;6.57;;;16.60;90.80;;;;;;5073604;28;20025;-74
2022/09/10 03:51:30;;;;;;;11.52;6.93;;;16.60;90.90;;;;;;5073569;28;20088;-75
2022/09/10 03:53:57;;;;;;;13.13;6.60;;;16.60;91.20;;;;;;5073548;28;20017;-75
2022/09/10 03:56:23;;;;;;;12.07;6.47;;;16.60;90.60;;;;;;5073486;28;20021;-75
2022/09/10 03:58:49;;;;;;;13.23;6.75;;;16.50;90.90;;;;;;5073502;28;20090;-74
2022/09/10 04:01:16;;;;;;;9.90;6.35;;;16.50;91.00;;;;;;5073408;28;20021;-74
2022/09/10 04:03:42;;;;;;;11.45;6.28;;;16.50;91.00;;;;;;5072422;28;20028;-74
2022/09/10 04:06:12;;;;;;;14.80;6.75;;;16.50;91.10;;;;;;5073124;28;20040;-74
2022/09/10 04:08:38;;;;;;;13.32;6.93;;;16.60;91.00;;;;;;5073556;28;20032;-75
2022/09/10 04:11:05;;;;;;;12.80;6.78;;;16.60;90.90;;;;;;5073403;28;20093;-75
2022/09/10 04:13:31;;;;;;;13.50;6.70;;;16.60;90.90;;;;;;5073275;28;20036;-74
2022/09/10 04:15:59;;;;;;;14.50;6.60;;;16.60;90.90;;;;;;5072281;28;20101;-74
2022/09/10 04:18:26;;;;;;;14.18;7.28;;;16.60;90.90;;;;;;5073237;28;20033;-75
2022/09/10 04:20:52;;;;;;;14.75;6.75;;;16.60;91.00;;;;;;5073354;28;20499;-75
2022/09/10 04:23:18;;;;;;;11.95;6.68;;;16.60;91.20;;;;;;5073227;28;20060;-74
2022/09/10 04:25:45;;;;;;;13.10;7.22;;;16.50;91.10;;;;;;5072515;28;20029;-74
2022/09/10 04:28:11;;;;;;;14.02;7.35;;;16.50;91.10;;;;;;5073077;28;20021;-74
2022/09/10 04:30:37;;;;;;;10.45;6.47;;;16.60;91.20;;;;;;5073136;28;20357;-74
2022/09/10 04:33:03;;;;;;;12.35;6.68;;;16.60;91.10;;;;;;5073217;28;20047;-74
2022/09/10 04:35:28;;;;;;;13.68;6.65;;;16.50;91.10;;;;;;5073100;28;20021;-74
2022/09/10 04:37:54;;;;;;;14.02;7.97;;;16.50;91.20;;;;;;5073025;28;20432;-73
2022/09/10 04:40:20;;;;;;;13.48;7.57;;;16.50;91.20;;;;;;5071935;28;20104;-73
2022/09/10 04:42:45;;;;;;;12.65;6.75;;;16.50;91.20;;;;;;5073007;28;20025;-75
2022/09/10 04:45:11;;;;;;;12.63;7.20;;;16.50;91.20;;;;;;5072959;28;20025;-74
2022/09/10 04:47:38;;;;;;;12.65;7.13;;;16.50;91.20;;;;;;5072912;28;20029;-73
2022/09/10 04:50:05;;;;;;;12.48;6.90;;;16.50;91.20;;;;;;5072936;28;20025;-74
2022/09/10 04:52:31;;;;;;;13.00;7.40;;;16.60;91.10;;;;;;5072884;28;20021;-74
2022/09/10 04:54:56;;;;;;;13.32;7.00;;;16.60;91.10;;;;;;5072899;28;20073;-74
2022/09/10 04:57:23;;;;;;;15.73;7.35;;;16.60;91.20;;;;;;5072849;28;20029;-74
2022/09/10 04:59:48;;;;;;;13.35;7.20;;;16.60;91.10;;;;;;5072894;28;20040;-74
2022/09/10 05:02:14;;;;;;;13.27;7.20;;;16.60;91.10;;;;;;5072823;28;20369;-75
2022/09/10 05:04:40;;;;;;;13.88;7.15;;;16.60;91.20;;;;;;5071736;28;20068;-74
2022/09/10 05:07:05;;;;;;;18.83;7.75;;;16.60;91.10;;;;;;5072822;28;20056;-74
2022/09/10 05:09:32;;;;;;;13.98;7.50;;;16.60;91.10;;;;;;5072748;28;20472;-74
2022/09/10 05:11:58;;;;;;;16.55;7.93;;;16.60;91.10;;;;;;5072732;28;20044;-74
2022/09/10 05:14:24;;;;;;;14.38;7.43;;;16.60;91.10;;;;;;5072696;28;20025;-74
2022/09/10 05:16:50;;;;;;;12.32;7.80;;;16.60;91.10;;;;;;5072682;28;20028;-74
2022/09/10 05:19:16;;;;;;;13.00;8.00;;;16.60;91.10;;;;;;5072688;28;20025;-74
2022/09/10 05:21:47;;;;;;;18.90;8.48;;;16.50;91.20;;;;;;5071713;28;20025;-74
2022/09/10 05:24:13;;;;;;;15.95;8.05;;;16.50;91.30;;;;;;5072652;28;20048;-74
2022/09/10 05:26:41;;;;;;;15.13;7.35;;;16.60;91.20;;;;;;5072504;28;20063;-74
2022/09/10 05:29:07;;;;;;;14.80;7.78;;;16.60;91.20;;;;;;5072597;28;20018;-74
2022/09/10 05:31:34;;;;;;;14.65;8.85;;;16.50;91.40;;;;;;5072525;28;20024;-74
2022/09/10 05:34:00;;;;;;;16.83;8.43;;;16.60;91.30;;;;;;5072534;28;20025;-74
2022/09/10 05:36:30;;;;;;;16.58;8.75;;;16.60;91.30;;;;;;5072895;28;20088;-74
2022/09/10 05:38:58;;;;;;;18.08;8.40;;;16.60;91.30;;;;;;5076149;28;20051;-74
2022/09/10 05:41:24;;;;;;;15.65;8.45;;;16.50;91.40;;;;;;5076031;28;20152;-74
2022/09/10 05:43:49;;;;;;;15.95;8.13;;;16.50;91.40;;;;;;5075980;28;20037;-73
2022/09/10 05:46:15;;;;;;;16.75;8.05;;;16.50;91.50;;;;;;5075104;28;20036;-74
2022/09/10 05:48:41;;;;;;;15.10;7.68;;;16.50;91.60;;;;;;5075886;28;20017;-74
2022/09/10 05:51:07;;;;;;;17.77;8.50;;;16.50;91.50;;;;;;5075825;28;20025;-74
2022/09/10 05:53:32;;;;;;;20.88;9.05;;;16.50;91.50;;;;;;5075781;28;20047;-74
2022/09/10 05:55:58;;;;;;;19.67;8.60;;;16.60;91.40;;;;;;5075725;28;20096;-74
2022/09/10 05:58:26;;;;;;;17.60;9.05;;;16.60;91.40;;;;;;5075703;28;20032;-74
2022/09/10 06:00:53;;;;;;;14.55;8.65;;;16.60;91.50;;;;;;5075653;28;20041;-74
2022/09/10 06:03:19;;;;;;;19.35;9.32;;;16.50;91.60;;;;;;5075621;28;20063;-74
2022/09/10 06:05:50;;;;;;;19.00;9.43;;;16.60;91.50;;;;;;5074277;28;20057;-73
2022/09/10 06:08:16;;;;;;;18.58;10.05;;;16.70;91.40;;;;;;5075493;28;20025;-73
2022/09/10 06:10:52;;;;;;;17.15;9.32;;;16.70;91.30;;;;;;5075436;28;20028;-73
2022/09/10 06:13:19;;;;;;;16.33;8.65;;;16.60;91.30;;;;;;5075472;28;20040;-73
2022/09/10 06:15:45;;;;;;;17.67;8.98;;;16.70;91.50;;;;;;5075483;28;20025;-75
2022/09/10 06:18:10;;;;;;;19.15;10.45;;;16.60;91.40;;;;;;5075455;28;20029;-74
2022/09/10 06:20:36;;;;;;;18.92;9.68;;;16.60;91.50;;;;;;5075293;28;20029;-74
2022/09/10 06:23:02;;;;;;;19.58;9.30;;;16.70;91.60;;;;;;5075205;28;20059;-74
2022/09/10 06:25:27;;;;;;;18.02;9.57;;;16.60;91.50;;;;;;5075131;28;20049;-74
2022/09/10 06:27:53;;;;;;;19.52;9.98;;;16.60;91.70;;;;;;5075193;28;20029;-74
2022/09/10 06:30:20;;;;;;;15.98;8.73;;;16.60;91.70;;;;;;5075005;28;20089;-74
2022/09/10 06:32:46;;;;;;;21.17;9.50;;;16.60;91.70;;;;;;5075077;28;20013;-75
2022/09/10 06:35:12;;;;;;;21.65;8.95;;;16.70;91.60;;;;;;5074996;28;20033;-73
2022/09/10 06:37:37;;;;;;;15.27;9.20;;;16.60;91.70;;;;;;5075086;28;20032;-73
2022/09/10 06:40:03;;;;;;;17.15;8.75;;;16.60;91.70;;;;;;5074888;28;20116;-73
2022/09/10 06:42:31;;;;;;;15.57;8.73;;;16.70;91.70;;;;;;5073819;28;20100;-73
2022/09/10 06:44:58;;;;;;;19.77;10.23;;;16.60;91.80;;;;;;5074140;28;20029;-73
2022/09/10 06:47:25;;;;;;;18.85;9.32;;;16.70;91.70;;;;;;5073168;28;20025;-74
2022/09/10 06:49:51;;;;;;;20.95;10.55;;;16.70;91.70;;;;;;5074894;28;20029;-74
2022/09/10 06:52:17;;;;;;;16.67;9.20;;;16.70;91.70;;;;;;5073704;28;20029;-74
2022/09/10 06:54:42;;;;;;;19.23;9.50;;;16.70;91.60;;;;;;5074622;28;20103;-73
2022/09/10 06:57:09;;;;;;;18.10;10.00;;;16.70;91.70;;;;;;5074582;28;20033;-73
2022/09/10 06:59:34;;;;;;;18.10;10.50;;;16.70;91.60;;;;;;5074546;28;20021;-74
2022/09/10 07:02:01;;;;;;;19.15;9.45;;;16.80;91.60;;;;;;5074494;28;20044;-74
2022/09/10 07:04:27;;;;;;;20.73;9.90;;;16.80;91.60;;;;;;5074386;28;20128;-74
2022/09/10 07:06:53;;;;;;;19.05;9.45;;;16.80;91.50;;;;;;5074352;28;20028;-74
2022/09/10 07:09:19;;;;;;;20.45;9.82;;;16.80;91.50;;;;;;5074334;28;20013;-74
2022/09/10 07:11:44;;;;;;;16.58;9.20;;;16.90;91.40;;;;;;5074259;28;20021;-74
2022/09/10 07:14:11;;;;;;;19.85;9.13;;;16.90;91.20;;;;;;5074233;28;20033;-74
2022/09/10 07:16:40;;;;;;;16.75;8.82;;;16.90;91.40;;;;;;5074202;28;20025;-74
2022/09/10 07:19:06;;;;;;;19.73;8.93;;;16.90;91.30;;;;;;5074160;28;20024;-74
2022/09/10 07:21:36;;;;;;;16.58;8.25;;;16.80;91.30;;;;;;5074097;28;20054;-74
2022/09/10 07:24:04;;;;;;;17.13;9.38;;;16.80;91.60;;;;;;5073148;28;20025;-73
2022/09/10 07:26:31;;;;;;;15.00;8.52;;;16.90;91.60;;;;;;5073047;28;20056;-74
2022/09/10 07:28:57;;;;;;;16.58;8.95;;;16.90;91.50;;;;;;5073898;28;20029;-73
2022/09/10 07:31:28;;;;;;;16.08;9.57;;;16.80;91.60;;;;;;5073941;28;20017;-74
2022/09/10 07:33:59;;;;;;;14.00;8.77;;;16.90;91.60;;;;;;5073873;28;20025;-73
2022/09/10 07:36:26;;;;;;;15.77;8.82;;;16.90;91.60;;;;;;5073896;28;20046;-73
2022/09/10 07:38:53;;;;;;;20.73;10.20;;;16.90;91.60;;;;;;5073777;28;20029;-74
2022/09/10 07:41:19;;;;;;;17.58;9.85;;;17.00;91.50;;;;;;5073727;28;20029;-73
2022/09/10 07:43:45;;;;;;;20.92;10.65;;;17.00;91.40;;;;;;5073728;28;20025;-74
2022/09/10 07:46:18;;;;;;;16.25;8.82;;;17.00;91.50;;;;;;5073717;28;20096;-74
2022/09/10 07:48:44;;;;;;;17.52;9.73;;;17.00;91.50;;;;;;5073688;28;20028;-74
2022/09/10 07:51:10;;;;;;;16.13;9.63;;;17.10;91.40;;;;;;5073594;28;20048;-73
2022/09/10 07:53:37;;;;;;;15.48;9.43;;;17.10;91.50;;;;;;5073579;28;20494;-73
2022/09/10 07:56:05;;;;;;;18.77;9.75;;;17.10;91.50;;;;;;5073520;28;20476;-74
2022/09/10 07:58:34;;;;;;;17.80;9.95;;;17.10;91.60;;;;;;5073283;28;20032;-74
2022/09/10 08:01:01;;;;;;;17.63;9.90;;;17.10;91.60;;;;;;5072909;28;20028;-74
2022/09/10 08:03:28;;;;;;;17.08;9.63;;;17.10;91.60;;;;;;5072431;28;20032;-74
2022/09/10 08:05:54;;;;;;;17.48;9.80;;;17.20;91.60;;;;;;5073101;28;20045;-74
2022/09/10 08:08:21;;;;;;;18.35;9.85;;;17.20;92.10;;;;;;5073369;28;20036;-74
2022/09/10 08:10:47;;;;;;;17.42;10.52;;;17.20;91.70;;;;;;5073325;28;20025;-74
2022/09/10 08:13:14;;;;;;;17.40;9.18;;;17.20;91.70;;;;;;5073276;28;20084;-74
2022/09/10 08:15:43;;;;;;;17.30;8.93;;;17.20;91.70;;;;;;5073233;28;20406;-74
2022/09/10 08:18:11;;;;;;;17.02;9.40;;;17.20;91.60;;;;;;5073075;28;20029;-74
2022/09/10 08:20:38;;;;;;;19.58;9.82;;;17.20;91.50;;;;;;5073227;28;20134;-74
2022/09/10 08:23:04;;;;;;;16.85;9.50;;;17.20;91.50;;;;;;5073203;28;20021;-74
2022/09/10 08:25:30;;;;;;;19.73;9.68;;;17.20;91.60;;;;;;5073045;28;20044;-73
2022/09/10 08:27:56;;;;;;;16.02;10.13;;;17.20;91.60;;;;;;5073148;28;20036;-73
2022/09/10 08:30:22;;;;;;;16.40;10.20;;;17.20;91.60;;;;;;5073101;28;20025;-73
2022/09/10 08:32:47;;;;;;;17.25;10.90;;;17.20;91.60;;;;;;5073137;28;20036;-73
2022/09/10 08:35:13;;;;;;;18.00;10.30;;;17.20;91.60;;;;;;5073047;28;20100;-73
2022/09/10 08:37:39;;;;;;;20.95;11.57;;;17.30;91.70;;;;;;5073043;28;20025;-73
2022/09/10 08:40:06;;;;;;;20.10;11.20;;;17.20;91.60;;;;;;5073027;28;20029;-73
2022/09/10 08:42:45;;;;;;;20.10;12.07;;;17.20;91.70;;;;;;5073001;28;20049;-73
2022/09/10 08:45:14;;;;;;;18.63;11.30;;;17.20;91.70;;;;;;5072992;28;20043;-73
2022/09/10 08:47:45;;;;;;;19.02;11.27;;;17.30;91.80;;;;;;5072858;28;20033;-74
2022/09/10 08:50:17;;;;;;;23.08;11.55;;;17.30;91.70;;;;;;5072935;28;20025;-73
2022/09/10 08:52:49;;;;;;;20.90;13.30;;;17.40;91.90;;;;;;5072964;28;20027;-74
2022/09/10 08:55:18;;;;;;;23.92;13.23;;;17.40;92.40;;;;;;5072934;28;20044;-74
2022/09/10 08:57:54;;;;;;;23.42;13.57;;;17.40;92.00;;;;;;5072833;28;20059;-73
2022/09/10 09:00:23;;;;;;;26.13;14.02;;;17.50;92.10;;;;;;5071825;28;20033;-73
2022/09/10 09:02:55;;;;;;;22.15;13.32;;;17.50;92.40;;;;;;5072817;28;20025;-74
2022/09/10 09:05:22;;;;;;;24.58;14.23;;;17.60;92.20;;;;;;5072722;28;20091;-74
2022/09/10 09:07:50;;;;;;;22.77;14.27;;;17.60;92.00;;;;;;5072637;28;20093;-73
2022/09/10 09:10:25;;;;;;;26.27;14.95;;;17.70;92.20;;;;;;5072915;28;20021;-73
2022/09/10 09:13:21;;;;;;;24.70;14.32;;;17.70;92.20;;;;;;5076602;28;20025;-74
2022/09/10 09:16:14;;;;;;;23.63;14.55;;;17.80;92.10;;;;;;5076536;28;20040;-74
2022/09/10 09:19:00;;;;;;;26.05;14.80;;;17.90;92.10;;;;;;5076510;28;20029;-74
2022/09/10 09:21:34;;;;;;;24.58;14.45;;;18.00;91.70;;;;;;5076404;28;20028;-74
2022/09/10 09:24:01;;;;;;;24.98;14.93;;;18.00;91.50;;;;;;5076434;28;20081;-74
2022/09/10 09:26:36;;;;;;;23.63;14.93;;;18.00;91.50;;;;;;5075311;28;20025;-74
2022/09/10 09:29:11;;;;;;;27.20;15.98;;;18.00;91.60;;;;;;5076316;28;20029;-74
2022/09/10 09:31:41;;;;;;;26.48;15.40;;;18.00;91.40;;;;;;5076442;28;20029;-74
2022/09/10 09:34:18;;;;;;;23.65;14.90;;;18.00;91.10;;;;;;5076383;28;20009;-75
2022/09/10 09:36:48;;;;;;;23.73;14.68;;;18.00;91.20;;;;;;5076341;28;20060;-74
2022/09/10 09:39:23;;;;;;;25.65;14.32;;;18.00;91.20;;;;;;5076117;28;20025;-74
2022/09/10 09:42:06;;;;;;;25.10;15.77;;;18.00;91.20;;;;;;5076221;28;20025;-74
2022/09/10 09:44:45;;;;;;;28.05;14.73;;;18.10;91.40;;;;;;5076206;28;20051;-74
2022/09/10 09:47:11;;;;;;;24.05;13.63;;;18.20;91.50;;;;;;5075916;28;20021;-74
2022/09/10 09:49:37;;;;;;;22.15;13.90;;;18.10;91.30;;;;;;5075927;28;20423;-74
2022/09/10 09:52:23;;;;;;;21.98;12.45;;;18.20;91.40;;;;;;5075833;28;20024;-74
2022/09/10 09:54:57;;;;;;;20.05;12.00;;;18.30;91.30;;;;;;5075994;28;20025;-75
2022/09/10 09:57:24;;;;;;;20.10;11.23;;;18.30;91.00;;;;;;5075827;28;20027;-75
2022/09/10 09:59:50;;;;;;;18.63;11.20;;;18.30;91.20;;;;;;5075872;28;20033;-75
2022/09/10 10:02:19;;;;;;;18.40;11.68;;;18.30;91.20;;;;;;5075705;28;20025;-74
2022/09/10 10:05:23;;;;;;;16.17;11.60;;;18.40;91.60;;;;;;5075393;28;20048;-75
2022/09/10 10:07:49;;;;;;;17.50;11.15;;;18.40;91.30;;;;;;5069080;28;20128;-75
2022/09/10 10:10:26;;;;;;;18.85;11.88;;;18.40;91.50;;;;;;5075274;28;20047;-75
2022/09/10 10:12:53;;;;;;;19.52;11.77;;;18.50;91.10;;;;;;5075494;28;20032;-74
2022/09/10 10:15:37;;;;;;;19.40;10.70;;;18.50;91.20;;;;;;5075474;28;20051;-75
2022/09/10 10:18:21;;;;;;;18.40;12.10;;;18.60;91.10;;;;;;5075373;28;20025;-75
2022/09/10 10:21:09;;;;;;;17.38;11.15;;;18.70;91.20;;;;;;5075343;28;20051;-75
2022/09/10 10:23:36;;;;;;;19.55;11.80;;;18.80;91.80;;;;;;5073703;28;20021;-75
2022/09/10 10:26:27;;;;;;;20.55;12.15;;;18.90;91.40;;;;;;5075127;28;20032;-75
2022/09/10 10:28:58;;;;;;;16.67;11.85;;;19.00;91.30;;;;;;5075189;28;20044;-75
2022/09/10 10:31:33;;;;;;;18.02;12.15;;;18.90;90.40;;;;;;5075360;28;20026;-75
2022/09/10 10:34:04;;;;;;;19.85;12.32;;;18.90;90.80;;;;;;5075178;28;20021;-75
2022/09/10 10:36:59;;;;;;;20.08;13.38;;;18.80;90.70;;;;;;5075118;28;20033;-75
2022/09/10 10:40:01;;;;;;;20.60;13.07;;;18.80;90.70;;;;;;5075117;28;20017;-75
2022/09/10 10:42:35;;;;;;;18.55;11.60;;;18.70;91.10;;;;;;5075078;28;20085;-75
2022/09/10 10:45:18;;;;;;;20.48;12.98;;;18.60;90.80;;;;;;5074829;28;20112;-75
2022/09/10 10:47:54;;;;;;;19.67;13.00;;;18.60;90.90;;;;;;5074805;28;20052;-75
2022/09/10 10:50:42;;;;;;;22.23;12.57;;;18.60;90.90;;;;;;5074822;28;20021;-75
2022/09/10 10:53:29;;;;;;;22.23;14.07;;;18.60;91.10;;;;;;5074943;28;20082;-75
2022/09/10 10:56:12;;;;;;;20.10;12.57;;;18.60;91.10;;;;;;5074810;28;20029;-75
2022/09/10 10:58:59;;;;;;;21.63;12.88;;;18.50;91.00;;;;;;5074807;28;20032;-75
2022/09/10 11:01:28;;;;;;;20.92;12.13;;;18.60;91.00;;;;;;5074589;28;20456;-75
2022/09/10 11:04:21;;;;;;;19.42;12.82;;;18.50;91.00;;;;;;5073475;28;20108;-75
2022/09/10 11:06:56;;;;;;;16.52;11.93;;;18.60;91.00;;;;;;5074464;28;20102;-73
2022/09/10 11:09:26;;;;;;;19.17;11.57;;;18.60;91.00;;;;;;5074554;28;20013;-74
2022/09/10 11:12:04;;;;;;;17.13;10.48;;;18.50;91.00;;;;;;5074461;28;20047;-75
2022/09/10 11:14:47;;;;;;;22.83;10.90;;;18.60;90.90;;;;;;5073254;28;20028;-75
2022/09/10 11:17:30;;;;;;;19.65;10.85;;;18.50;90.90;;;;;;5074177;28;20028;-75
2022/09/10 11:20:00;;;;;;;17.55;10.75;;;18.50;90.90;;;;;;5074182;28;20021;-75
2022/09/10 11:22:34;;;;;;;15.38;10.05;;;18.60;91.00;;;;;;5074158;28;20048;-74
2022/09/10 11:25:14;;;;;;;10.45;7.00;;;18.60;91.00;;;;;;5074118;28;20025;-74
2022/09/10 11:28:09;;;;;;;13.88;7.25;;;18.60;90.70;;;;;;5074015;28;20029;-74
2022/09/10 11:30:37;;;;;;;7.90;5.28;;;18.50;90.60;;;;;;5074014;28;20025;-74
2022/09/10 11:33:18;;;;;;;9.38;4.93;;;18.50;90.50;;;;;;5072913;28;20579;-74
2022/09/10 11:36:10;;;;;;;9.95;4.03;;;18.50;90.90;;;;;;5073936;28;20017;-75
2022/09/10 11:38:48;;;;;;;5.68;3.50;;;18.40;90.40;;;;;;5073999;28;20025;-74
2022/09/10 11:41:28;;;;;;;4.05;2.70;;;18.40;90.50;;;;;;5073973;28;20448;-74
2022/09/10 11:44:06;;;;;;;6.10;3.00;;;18.40;90.30;;;;;;5073771;28;20025;-75
2022/09/10 11:46:39;;;;;;;6.13;3.42;;;18.40;90.60;;;;;;5073601;28;20025;-75
2022/09/10 11:49:21;;;;;;;4.57;2.90;;;18.40;90.60;;;;;;5073854;28;20017;-74
2022/09/10 11:51:48;;;;;;;7.43;2.92;;;18.40;90.50;;;;;;5073760;28;20024;-75
2022/09/10 11:54:27;;;;;;;4.57;3.20;;;18.40;90.50;;;;;;5073610;28;20056;-75
2022/09/10 11:57:21;;;;;;;5.82;3.05;;;18.50;90.40;;;;;;5073579;28;20025;-75
2022/09/10 12:00:08;;;;;;;9.15;3.33;;;18.50;90.40;;;;;;5073660;28;20093;-74
2022/09/10 12:02:51;;;;;;;4.65;3.10;;;18.60;90.40;;;;;;5073664;28;20063;-75
2022/09/10 12:05:36;;;;;;;7.93;3.92;;;18.60;90.40;;;;;;5073453;28;20049;-75
2022/09/10 12:08:23;;;;;;;5.88;3.65;;;18.60;90.50;;;;;;5073400;28;20033;-75
2022/09/10 12:11:08;;;;;;;5.22;3.65;;;18.70;90.70;;;;;;5073509;28;20024;-75
2022/09/10 12:13:40;;;;;;;7.85;4.38;;;18.70;90.60;;;;;;5073308;28;20029;-75
2022/09/10 12:16:29;;;;;;;8.70;4.47;;;18.80;91.10;;;;;;5073295;28;20029;-75
2022/09/10 12:18:57;;;;;;;9.82;5.35;;;18.90;90.70;;;;;;5073290;28;20487;-75
2022/09/10 12:21:40;;;;;;;10.32;4.75;;;18.90;90.80;;;;;;5073353;28;20021;-75
2022/09/10 12:24:29;;;;;;;8.48;5.70;;;19.00;90.60;;;;;;5073241;28;20031;-75
2022/09/10 12:26:58;;;;;;;12.88;5.85;;;19.10;90.70;;;;;;5073063;28;20076;-75
2022/09/10 12:29:32;;;;;;;10.23;6.00;;;19.20;90.80;;;;;;5073127;28;20080;-75
2022/09/10 12:32:06;;;;;;;10.57;6.53;;;19.20;90.80;;;;;;5073141;28;20017;-76
2022/09/10 12:34:34;;;;;;;11.38;7.05;;;19.30;90.60;;;;;;5073060;28;20054;-75
2022/09/10 12:36:59;;;;;;;12.43;7.22;;;19.40;90.50;;;;;;5073076;28;20494;-73
2022/09/10 12:39:26;;;;;;;10.32;7.20;;;19.40;90.30;;;;;;5073051;28;20052;-75
2022/09/10 12:41:52;;;;;;;13.02;8.02;;;19.40;90.30;;;;;;5072936;28;20059;-76
2022/09/10 12:44:36;;;;;;;16.25;8.63;;;19.50;90.30;;;;;;5073042;28;20108;-73
2022/09/10 12:47:14;;;;;;;13.45;8.40;;;19.60;90.20;;;;;;5076088;28;20021;-74
2022/09/10 12:49:50;;;;;;;12.93;8.73;;;19.70;90.30;;;;;;5077065;28;20524;-74
2022/09/10 12:52:53;;;;;;;20.60;9.40;;;19.70;89.80;;;;;;5077034;28;20048;-74
2022/09/10 12:55:20;;;;;;;;;;;19.70;89.50;;;;;;5077421;28;20021;-74